createdAt,value
2018-07-12T00:00:31.341Z,0.00
2018-07-12T00:01:31.321Z,0.00
2018-07-12T00:02:31.335Z,0.00
2018-07-12T00:03:31.353Z,0.00
2018-07-12T00:04:31.362Z,0.00
2018-07-12T00:05:31.381Z,0.00
2018-07-12T00:06:31.414Z,0.00
2018-07-12T00:07:31.411Z,0.00
2018-07-12T00:08:31.427Z,0.00
2018-07-12T00:09:31.450Z,0.00
2018-07-12T00:10:31.455Z,0.00
2018-07-12T00:11:31.472Z,0.00
2018-07-12T00:12:31.494Z,0.00
2018-07-12T00:13:31.501Z,0.00
2018-07-12T00:14:31.515Z,0.00
2018-07-12T00:15:31.532Z,0.00
2018-07-12T00:16:31.548Z,0.00
2018-07-12T00:17:31.561Z,0.00
2018-07-12T00:18:31.582Z,0.00
2018-07-12T00:19:31.592Z,0.00
2018-07-12T00:20:31.609Z,0.00
2018-07-12T00:21:31.620Z,0.00
2018-07-12T00:22:31.635Z,0.00
2018-07-12T00:23:31.650Z,0.00
2018-07-12T00:24:32.580Z,0.00
2018-07-12T00:25:31.685Z,0.00
2018-07-12T00:26:31.702Z,0.00
2018-07-12T00:27:31.712Z,0.00
2018-07-12T00:28:31.726Z,0.00
2018-07-12T00:29:31.745Z,0.00
2018-07-12T00:30:31.760Z,0.00
2018-07-12T00:31:31.792Z,0.00
2018-07-12T00:32:31.968Z,0.00
2018-07-12T00:33:31.806Z,0.00
2018-07-12T00:34:31.823Z,0.00
2018-07-12T00:35:31.834Z,0.00
2018-07-12T00:36:31.853Z,0.00
2018-07-12T00:37:31.866Z,0.00
2018-07-12T00:38:31.929Z,0.00
2018-07-12T00:39:31.895Z,0.00
2018-07-12T00:40:31.909Z,0.00
2018-07-12T00:41:31.926Z,0.00
2018-07-12T00:42:31.941Z,0.00
2018-07-12T00:43:31.956Z,0.00
2018-07-12T00:44:31.972Z,0.00
2018-07-12T00:45:31.986Z,0.00
2018-07-12T00:46:32.000Z,0.00
2018-07-12T00:47:32.021Z,0.00
2018-07-12T00:48:32.032Z,0.00
2018-07-12T00:49:32.047Z,0.00
2018-07-12T00:50:32.413Z,0.00
2018-07-12T00:51:32.078Z,0.00
2018-07-12T00:52:32.091Z,0.00
2018-07-12T00:53:32.108Z,0.00
2018-07-12T00:54:32.169Z,0.00
2018-07-12T00:56:32.157Z,0.00
2018-07-12T00:57:32.255Z,0.00
2018-07-12T00:58:32.183Z,0.00
2018-07-12T00:59:32.201Z,0.00
2018-07-12T01:00:32.212Z,0.00
2018-07-12T01:02:32.256Z,0.00
2018-07-12T01:03:32.413Z,0.00
2018-07-12T01:04:32.519Z,0.00
2018-07-12T01:05:32.372Z,0.00
2018-07-12T01:06:32.308Z,0.00
2018-07-12T01:07:32.321Z,0.00
2018-07-12T01:08:32.338Z,0.00
2018-07-12T01:09:32.350Z,0.00
2018-07-12T01:10:32.365Z,0.00
2018-07-12T01:11:32.382Z,0.00
2018-07-12T01:12:32.393Z,0.00
2018-07-12T01:13:32.414Z,0.00
2018-07-12T01:14:32.431Z,0.00
2018-07-12T01:15:32.440Z,0.00
2018-07-12T01:16:32.458Z,0.00
2018-07-12T01:17:32.470Z,0.00
2018-07-12T01:18:32.496Z,0.00
2018-07-12T01:19:32.500Z,0.00
2018-07-12T01:20:32.526Z,0.00
2018-07-12T01:21:32.530Z,0.00
2018-07-12T01:22:32.551Z,0.00
2018-07-12T01:23:32.567Z,0.00
2018-07-12T01:24:32.580Z,0.00
2018-07-12T01:25:32.593Z,0.00
2018-07-12T01:26:32.608Z,0.00
2018-07-12T01:27:32.627Z,0.00
2018-07-12T01:28:32.636Z,0.00
2018-07-12T01:29:32.658Z,0.00
2018-07-12T01:30:33.208Z,0.00
2018-07-12T01:31:32.682Z,0.00
2018-07-12T01:32:32.698Z,0.00
2018-07-12T01:33:32.713Z,0.00
2018-07-12T01:34:32.732Z,0.00
2018-07-12T01:35:32.756Z,0.00
2018-07-12T01:36:32.808Z,0.00
2018-07-12T01:37:32.776Z,0.00
2018-07-12T01:38:32.787Z,0.00
2018-07-12T01:39:32.802Z,0.00
2018-07-12T01:40:32.821Z,0.00
2018-07-12T01:41:32.836Z,0.00
2018-07-12T01:42:32.849Z,0.00
2018-07-12T01:43:32.968Z,0.00
2018-07-12T01:44:32.895Z,0.00
2018-07-12T01:45:32.901Z,0.00
2018-07-12T01:46:33.022Z,0.00
2018-07-12T01:47:32.960Z,0.00
2018-07-12T01:48:32.941Z,0.00
2018-07-12T01:49:32.953Z,0.00
2018-07-12T01:50:32.968Z,0.00
2018-07-12T01:51:32.982Z,0.00
2018-07-12T01:52:32.996Z,0.00
2018-07-12T01:53:33.011Z,0.00
2018-07-12T01:54:33.028Z,0.00
2018-07-12T01:55:33.043Z,0.00
2018-07-12T01:56:33.063Z,0.00
2018-07-12T01:57:33.073Z,0.00
2018-07-12T01:58:33.093Z,0.00
2018-07-12T01:59:33.254Z,0.00
2018-07-12T02:00:33.165Z,0.00
2018-07-12T02:01:33.133Z,0.00
2018-07-12T02:02:33.158Z,0.00
2018-07-12T02:03:33.166Z,0.00
2018-07-12T02:04:33.190Z,0.00
2018-07-12T02:05:33.398Z,0.00
2018-07-12T02:06:33.360Z,0.00
2018-07-12T02:07:33.221Z,0.00
2018-07-12T02:08:33.240Z,0.00
2018-07-12T02:09:33.252Z,0.00
2018-07-12T02:10:33.270Z,0.00
2018-07-12T02:11:33.335Z,0.00
2018-07-12T02:12:33.302Z,0.00
2018-07-12T02:13:33.362Z,0.00
2018-07-12T02:14:33.332Z,0.00
2018-07-12T02:15:33.444Z,0.00
2018-07-12T02:16:33.358Z,0.00
2018-07-12T02:17:33.373Z,0.00
2018-07-12T02:18:33.389Z,0.00
2018-07-12T02:19:33.405Z,0.00
2018-07-12T02:20:33.422Z,0.00
2018-07-12T02:21:33.439Z,0.00
2018-07-12T02:22:33.471Z,0.00
2018-07-12T02:23:33.466Z,0.00
2018-07-12T02:24:33.479Z,0.00
2018-07-12T02:25:33.503Z,0.00
2018-07-12T02:26:33.508Z,0.00
2018-07-12T02:27:33.558Z,0.00
2018-07-12T02:28:33.539Z,0.00
2018-07-12T02:29:33.869Z,0.00
2018-07-12T02:30:33.963Z,4.00
2018-07-12T02:31:33.585Z,4.00
2018-07-12T02:32:33.601Z,4.00
2018-07-12T02:33:33.616Z,4.00
2018-07-12T02:34:33.633Z,4.00
2018-07-12T02:35:33.692Z,4.00
2018-07-12T02:36:33.658Z,4.00
2018-07-12T02:37:33.718Z,4.00
2018-07-12T02:38:33.690Z,4.00
2018-07-12T02:39:33.705Z,4.00
2018-07-12T02:40:33.721Z,4.00
2018-07-12T02:41:33.733Z,4.00
2018-07-12T02:42:33.755Z,4.00
2018-07-12T02:43:33.769Z,4.00
2018-07-12T02:44:33.777Z,4.00
2018-07-12T02:45:33.792Z,4.00
2018-07-12T02:46:33.814Z,4.00
2018-07-12T02:47:33.823Z,4.00
2018-07-12T02:48:33.836Z,0.00
2018-07-12T02:49:33.873Z,0.00
2018-07-12T02:50:33.869Z,4.00
2018-07-12T02:51:33.890Z,4.00
2018-07-12T02:52:33.901Z,4.00
2018-07-12T02:53:33.917Z,4.00
2018-07-12T02:54:33.929Z,4.00
2018-07-12T02:55:33.946Z,8.00
2018-07-12T02:56:33.961Z,4.00
2018-07-12T02:57:33.972Z,4.00
2018-07-12T02:58:33.994Z,8.00
2018-07-12T02:59:34.005Z,8.00
2018-07-12T03:00:34.034Z,4.00
2018-07-12T03:01:34.035Z,8.00
2018-07-12T03:02:34.053Z,8.00
2018-07-12T03:03:34.127Z,8.00
2018-07-12T03:04:34.079Z,8.00
2018-07-12T03:05:34.121Z,8.00
2018-07-12T03:06:34.112Z,8.00
2018-07-12T03:07:34.128Z,12.00
2018-07-12T03:08:34.139Z,12.00
2018-07-12T03:09:34.155Z,16.00
2018-07-12T03:11:34.259Z,16.00
2018-07-12T03:12:34.199Z,20.00
2018-07-12T03:13:34.213Z,20.00
2018-07-12T03:14:34.224Z,24.00
2018-07-12T03:15:34.255Z,24.00
2018-07-12T03:16:34.255Z,28.00
2018-07-12T03:17:34.270Z,32.00
2018-07-12T03:18:34.284Z,32.00
2018-07-12T03:19:34.311Z,40.00
2018-07-12T03:20:34.315Z,40.00
2018-07-12T03:21:34.334Z,44.00
2018-07-12T03:22:34.353Z,52.00
2018-07-12T03:23:34.366Z,52.00
2018-07-12T03:24:34.382Z,56.00
2018-07-12T03:25:34.390Z,64.00
2018-07-12T03:26:34.410Z,68.00
2018-07-12T03:27:34.441Z,72.00
2018-07-12T03:28:34.441Z,76.00
2018-07-12T03:29:34.449Z,80.00
2018-07-12T03:30:34.462Z,88.00
2018-07-12T03:31:34.481Z,92.00
2018-07-12T03:32:34.545Z,100.00
2018-07-12T03:33:34.509Z,108.00
2018-07-12T03:34:34.872Z,112.00
2018-07-12T03:35:34.539Z,124.00
2018-07-12T03:36:34.553Z,132.00
2018-07-12T03:37:34.574Z,136.00
2018-07-12T03:38:34.584Z,144.00
2018-07-12T03:39:34.600Z,152.00
2018-07-12T03:40:34.657Z,164.00
2018-07-12T03:41:34.629Z,172.00
2018-07-12T03:42:34.662Z,180.00
2018-07-12T03:43:34.737Z,188.00
2018-07-12T03:44:34.675Z,200.00
2018-07-12T03:45:34.689Z,208.00
2018-07-12T03:46:34.752Z,216.00
2018-07-12T03:47:34.722Z,228.00
2018-07-12T03:48:34.768Z,240.00
2018-07-12T03:49:34.748Z,248.00
2018-07-12T03:50:34.765Z,256.00
2018-07-12T03:51:34.777Z,268.00
2018-07-12T03:52:34.799Z,276.00
2018-07-12T03:53:34.824Z,288.00
2018-07-12T03:54:34.836Z,296.00
2018-07-12T03:55:34.838Z,312.00
2018-07-12T03:56:34.855Z,320.00
2018-07-12T03:57:34.870Z,332.00
2018-07-12T03:58:34.883Z,340.00
2018-07-12T03:59:34.897Z,348.00
2018-07-12T04:00:34.913Z,360.00
2018-07-12T04:01:34.946Z,368.00
2018-07-12T04:02:34.942Z,384.00
2018-07-12T04:03:34.986Z,392.00
2018-07-12T04:04:34.970Z,404.00
2018-07-12T04:05:34.984Z,412.00
2018-07-12T04:06:35.048Z,424.00
2018-07-12T04:07:35.423Z,436.00
2018-07-12T04:08:35.698Z,444.00
2018-07-12T04:09:35.046Z,460.00
2018-07-12T04:10:35.062Z,472.00
2018-07-12T04:11:35.076Z,484.00
2018-07-12T04:12:35.090Z,496.00
2018-07-12T04:13:35.157Z,512.00
2018-07-12T04:14:35.306Z,524.00
2018-07-12T04:15:35.137Z,540.00
2018-07-12T04:16:35.154Z,556.00
2018-07-12T04:17:35.165Z,572.00
2018-07-12T04:18:35.179Z,588.00
2018-07-12T04:19:35.195Z,604.00
2018-07-12T04:20:35.230Z,636.00
2018-07-12T04:21:35.228Z,644.00
2018-07-12T04:22:35.244Z,668.00
2018-07-12T04:23:35.253Z,688.00
2018-07-12T04:24:35.276Z,712.00
2018-07-12T04:25:35.283Z,732.00
2018-07-12T04:26:35.300Z,752.00
2018-07-12T04:27:35.316Z,764.00
2018-07-12T04:28:35.331Z,776.00
2018-07-12T04:29:35.350Z,784.00
2018-07-12T04:30:35.369Z,788.00
2018-07-12T04:31:35.374Z,796.00
2018-07-12T04:32:35.391Z,796.00
2018-07-12T04:33:35.406Z,804.00
2018-07-12T04:35:35.432Z,816.00
2018-07-12T04:36:35.456Z,932.00
2018-07-12T04:37:35.471Z,2016.00
2018-07-12T04:38:35.479Z,3932.00
2018-07-12T04:39:35.495Z,3340.00
2018-07-12T04:40:35.512Z,2220.00
2018-07-12T04:41:35.524Z,1576.00
2018-07-12T04:42:35.538Z,952.00
2018-07-12T04:43:36.057Z,932.00
2018-07-12T04:44:36.391Z,936.00
2018-07-12T04:45:35.582Z,956.00
2018-07-12T04:46:35.675Z,1220.00
2018-07-12T04:47:35.644Z,1308.00
2018-07-12T04:48:35.632Z,1164.00
2018-07-12T04:49:35.643Z,1052.00
2018-07-12T04:50:35.658Z,1024.00
2018-07-12T04:51:35.676Z,1028.00
2018-07-12T04:52:35.689Z,1020.00
2018-07-12T04:53:35.702Z,812.00
2018-07-12T04:54:35.718Z,804.00
2018-07-12T04:55:35.731Z,804.00
2018-07-12T04:56:35.748Z,828.00
2018-07-12T04:57:35.764Z,980.00
2018-07-12T04:58:35.897Z,1040.00
2018-07-12T04:59:35.814Z,1092.00
2018-07-12T05:00:35.808Z,1116.00
2018-07-12T05:01:35.824Z,1140.00
2018-07-12T05:02:35.918Z,1164.00
2018-07-12T05:03:35.856Z,1208.00
2018-07-12T05:05:35.885Z,1652.00
2018-07-12T05:06:35.899Z,2208.00
2018-07-12T05:07:36.137Z,2712.00
2018-07-12T05:08:35.939Z,2372.00
2018-07-12T05:09:36.015Z,1932.00
2018-07-12T05:10:35.987Z,1512.00
2018-07-12T05:11:36.050Z,1308.00
2018-07-12T05:12:36.006Z,1320.00
2018-07-12T05:13:36.006Z,1336.00
2018-07-12T05:14:36.026Z,1344.00
2018-07-12T05:15:36.034Z,1360.00
2018-07-12T05:16:36.052Z,1360.00
2018-07-12T05:17:36.072Z,1380.00
2018-07-12T05:18:36.104Z,1392.00
2018-07-12T05:19:36.120Z,1400.00
2018-07-12T05:20:36.131Z,1404.00
2018-07-12T05:21:36.129Z,1408.00
2018-07-12T05:22:36.173Z,1416.00
2018-07-12T05:23:36.315Z,1428.00
2018-07-12T05:24:36.184Z,1456.00
2018-07-12T05:25:36.192Z,1448.00
2018-07-12T05:26:36.204Z,1464.00
2018-07-12T05:27:36.217Z,1476.00
2018-07-12T05:28:36.235Z,1492.00
2018-07-12T05:29:36.286Z,1496.00
2018-07-12T05:30:36.263Z,1512.00
2018-07-12T05:31:36.290Z,1528.00
2018-07-12T05:32:36.288Z,1532.00
2018-07-12T05:33:36.315Z,1552.00
2018-07-12T05:34:36.493Z,1572.00
2018-07-12T05:35:36.335Z,1580.00
2018-07-12T05:36:36.648Z,1584.00
2018-07-12T05:37:36.486Z,1604.00
2018-07-12T05:38:36.383Z,1608.00
2018-07-12T05:39:36.399Z,1624.00
2018-07-12T05:40:36.711Z,1640.00
2018-07-12T05:41:36.429Z,1648.00
2018-07-12T05:42:36.438Z,1668.00
2018-07-12T05:43:36.454Z,1676.00
2018-07-12T05:44:36.467Z,1692.00
2018-07-12T05:45:36.479Z,1712.00
2018-07-12T05:46:36.560Z,1724.00
2018-07-12T05:47:36.508Z,1740.00
2018-07-12T05:48:36.586Z,1748.00
2018-07-12T05:49:36.695Z,1752.00
2018-07-12T05:50:37.109Z,1760.00
2018-07-12T05:51:36.632Z,1764.00
2018-07-12T05:52:36.617Z,1764.00
2018-07-12T05:53:36.613Z,1780.00
2018-07-12T05:54:36.617Z,1784.00
2018-07-12T05:55:36.654Z,1792.00
2018-07-12T05:56:36.647Z,1796.00
2018-07-12T05:57:36.771Z,1812.00
2018-07-12T05:58:36.690Z,1828.00
2018-07-12T05:59:36.697Z,1848.00
2018-07-12T06:00:36.709Z,1856.00
2018-07-12T06:01:36.720Z,1876.00
2018-07-12T06:02:36.741Z,1876.00
2018-07-12T06:03:36.752Z,1860.00
2018-07-12T06:04:36.787Z,1900.00
2018-07-12T06:06:36.796Z,1924.00
2018-07-12T06:07:36.899Z,1944.00
2018-07-12T06:08:36.834Z,1952.00
2018-07-12T06:09:36.846Z,1984.00
2018-07-12T06:10:36.863Z,1976.00
2018-07-12T06:11:36.873Z,2008.00
2018-07-12T06:12:36.904Z,2020.00
2018-07-12T06:13:36.902Z,2028.00
2018-07-12T06:14:36.917Z,2036.00
2018-07-12T06:15:36.934Z,2056.00
2018-07-12T06:16:36.948Z,2076.00
2018-07-12T06:17:36.967Z,2092.00
2018-07-12T06:18:37.029Z,2096.00
2018-07-12T06:19:36.999Z,2096.00
2018-07-12T06:20:37.016Z,2116.00
2018-07-12T06:21:37.031Z,2120.00
2018-07-12T06:22:37.041Z,2132.00
2018-07-12T06:23:37.064Z,2140.00
2018-07-12T06:24:37.119Z,2164.00
2018-07-12T06:25:37.200Z,2168.00
2018-07-12T06:26:37.147Z,2172.00
2018-07-12T06:27:37.116Z,2188.00
2018-07-12T06:28:37.330Z,2128.00
2018-07-12T06:29:37.147Z,2232.00
2018-07-12T06:30:37.161Z,2188.00
2018-07-12T06:31:37.183Z,2256.00
2018-07-12T06:32:37.250Z,1904.00
2018-07-12T06:33:37.207Z,1740.00
2018-07-12T06:34:37.904Z,2028.00
2018-07-12T06:35:37.754Z,1964.00
2018-07-12T06:36:37.574Z,2004.00
2018-07-12T06:37:37.330Z,2200.00
2018-07-12T06:38:37.286Z,2264.00
2018-07-12T06:39:37.397Z,2232.00
2018-07-12T06:40:37.799Z,2180.00
2018-07-12T06:41:37.677Z,2304.00
2018-07-12T06:42:37.398Z,2296.00
2018-07-12T06:43:37.363Z,2244.00
2018-07-12T06:44:37.379Z,2352.00
2018-07-12T06:45:37.392Z,2344.00
2018-07-12T06:46:37.425Z,2340.00
2018-07-12T06:47:37.828Z,2352.00
2018-07-12T06:48:37.435Z,2372.00
2018-07-12T06:49:37.456Z,2360.00
2018-07-12T06:50:37.468Z,2372.00
2018-07-12T06:51:37.484Z,2400.00
2018-07-12T06:52:37.925Z,2412.00
2018-07-12T06:53:37.814Z,2432.00
2018-07-12T06:54:37.576Z,2432.00
2018-07-12T06:55:37.548Z,2444.00
2018-07-12T06:56:37.565Z,2444.00
2018-07-12T06:57:37.656Z,2456.00
2018-07-12T06:58:37.729Z,2472.00
2018-07-12T06:59:37.660Z,2480.00
2018-07-12T07:00:37.677Z,2476.00
2018-07-12T07:01:37.645Z,2492.00
2018-07-12T07:02:37.657Z,2520.00
2018-07-12T07:03:37.675Z,2524.00
2018-07-12T07:04:37.688Z,2516.00
2018-07-12T07:05:37.764Z,2540.00
2018-07-12T07:06:38.017Z,2544.00
2018-07-12T07:07:37.744Z,2540.00
2018-07-12T07:08:37.773Z,2564.00
2018-07-12T07:09:37.775Z,2568.00
2018-07-12T07:10:38.454Z,2588.00
2018-07-12T07:11:37.793Z,2592.00
2018-07-12T07:12:37.808Z,2596.00
2018-07-12T07:13:37.867Z,2624.00
2018-07-12T07:14:37.879Z,2628.00
2018-07-12T07:15:37.861Z,2628.00
2018-07-12T07:16:37.871Z,2632.00
2018-07-12T07:17:37.885Z,2644.00
2018-07-12T07:18:37.905Z,2664.00
2018-07-12T07:19:37.924Z,2656.00
2018-07-12T07:20:37.938Z,2668.00
2018-07-12T07:21:37.958Z,2684.00
2018-07-12T07:22:37.965Z,2724.00
2018-07-12T07:23:37.995Z,2728.00
2018-07-12T07:24:38.000Z,2720.00
2018-07-12T07:25:38.033Z,2704.00
2018-07-12T07:26:38.033Z,2760.00
2018-07-12T07:27:38.246Z,2788.00
2018-07-12T07:28:38.681Z,2804.00
2018-07-12T07:29:38.280Z,2812.00
2018-07-12T07:30:38.116Z,2832.00
2018-07-12T07:31:39.030Z,2828.00
2018-07-12T07:32:39.061Z,2832.00
2018-07-12T07:33:39.553Z,2832.00
2018-07-12T07:34:38.154Z,2808.00
2018-07-12T07:35:38.219Z,2852.00
2018-07-12T07:36:38.323Z,2880.00
2018-07-12T07:37:38.224Z,2864.00
2018-07-12T07:38:38.612Z,2844.00
2018-07-12T07:39:38.354Z,2904.00
2018-07-12T07:40:38.257Z,2900.00
2018-07-12T07:41:38.289Z,2900.00
2018-07-12T07:42:38.527Z,2912.00
2018-07-12T07:43:38.316Z,2932.00
2018-07-12T07:44:38.323Z,2932.00
2018-07-12T07:45:38.331Z,2964.00
2018-07-12T07:46:38.354Z,2928.00
2018-07-12T07:47:38.357Z,2936.00
2018-07-12T07:48:38.393Z,2928.00
2018-07-12T07:49:38.388Z,2944.00
2018-07-12T07:50:38.686Z,2960.00
2018-07-12T07:51:38.646Z,2984.00
2018-07-12T07:52:39.189Z,2980.00
2018-07-12T07:53:38.648Z,3000.00
2018-07-12T07:54:38.736Z,3000.00
2018-07-12T07:55:39.204Z,2972.00
2018-07-12T07:56:39.108Z,3016.00
2018-07-12T07:57:38.749Z,2976.00
2018-07-12T07:58:38.791Z,3012.00
2018-07-12T07:59:38.851Z,3064.00
2018-07-12T08:00:38.653Z,3028.00
2018-07-12T08:01:38.654Z,3140.00
2018-07-12T08:03:38.645Z,3020.00
2018-07-12T08:04:38.618Z,3004.00
2018-07-12T08:05:38.693Z,3040.00
2018-07-12T08:06:39.175Z,3048.00
2018-07-12T08:07:39.079Z,3060.00
2018-07-12T08:08:38.695Z,3092.00
2018-07-12T08:09:39.031Z,3120.00
2018-07-12T08:10:39.873Z,3112.00
2018-07-12T08:11:38.846Z,3132.00
2018-07-12T08:12:38.917Z,3124.00
2018-07-12T08:13:38.953Z,3112.00
2018-07-12T08:14:39.018Z,3108.00
2018-07-12T08:15:39.118Z,3088.00
2018-07-12T08:16:40.769Z,3124.00
2018-07-12T08:17:40.129Z,3172.00
2018-07-12T08:18:39.621Z,3168.00
2018-07-12T08:19:38.858Z,3184.00
2018-07-12T08:20:38.916Z,3148.00
2018-07-12T08:22:38.982Z,3172.00
2018-07-12T08:23:39.079Z,3212.00
2018-07-12T08:24:39.363Z,3204.00
2018-07-12T08:25:39.054Z,3236.00
2018-07-12T08:26:38.988Z,3252.00
2018-07-12T08:27:38.988Z,3252.00
2018-07-12T08:28:39.019Z,3268.00
2018-07-12T08:29:39.019Z,3256.00
2018-07-12T08:30:39.037Z,3276.00
2018-07-12T08:31:39.053Z,3280.00
2018-07-12T08:32:39.066Z,3300.00
2018-07-12T08:33:39.085Z,3328.00
2018-07-12T08:34:39.099Z,3324.00
2018-07-12T08:35:39.122Z,3320.00
2018-07-12T08:36:39.133Z,3296.00
2018-07-12T08:37:39.184Z,3324.00
2018-07-12T08:38:39.212Z,3324.00
2018-07-12T08:39:39.181Z,3376.00
2018-07-12T08:40:39.389Z,3348.00
2018-07-12T08:41:39.210Z,3100.00
2018-07-12T08:42:39.276Z,3444.00
2018-07-12T08:43:39.347Z,3556.00
2018-07-12T08:44:39.349Z,3572.00
2018-07-12T08:45:39.284Z,3588.00
2018-07-12T08:46:39.292Z,3584.00
2018-07-12T08:47:39.367Z,3500.00
2018-07-12T08:48:39.325Z,3452.00
2018-07-12T08:49:39.411Z,3224.00
2018-07-12T08:50:39.545Z,3528.00
2018-07-12T08:52:39.755Z,3448.00
2018-07-12T08:53:39.487Z,1992.00
2018-07-12T08:55:39.451Z,3608.00
2018-07-12T08:56:39.452Z,3600.00
2018-07-12T08:57:39.522Z,3600.00
2018-07-12T08:58:39.496Z,3692.00
2018-07-12T08:59:39.938Z,3724.00
2018-07-12T09:00:39.601Z,3792.00
2018-07-12T09:01:39.540Z,3816.00
2018-07-12T09:02:39.674Z,3864.00
2018-07-12T09:03:39.605Z,3856.00
2018-07-12T09:04:39.581Z,2672.00
2018-07-12T09:05:39.598Z,3928.00
2018-07-12T09:06:39.615Z,4108.00
2018-07-12T09:07:39.637Z,4108.00
2018-07-12T09:08:39.647Z,3536.00
2018-07-12T09:09:39.662Z,2680.00
2018-07-12T09:10:41.645Z,4512.00
2018-07-12T09:11:39.698Z,4580.00
2018-07-12T09:12:39.717Z,4632.00
2018-07-12T09:13:39.728Z,4500.00
2018-07-12T09:14:39.747Z,2768.00
2018-07-12T09:15:39.820Z,3880.00
2018-07-12T09:16:39.793Z,2752.00
2018-07-12T09:17:39.805Z,4296.00
2018-07-12T09:18:39.813Z,3672.00
2018-07-12T09:19:39.830Z,2404.00
2018-07-12T09:20:39.910Z,2436.00
2018-07-12T09:21:39.922Z,4224.00
2018-07-12T09:22:39.881Z,4684.00
2018-07-12T09:24:40.810Z,4480.00
2018-07-12T09:25:41.003Z,4328.00
2018-07-12T09:26:39.951Z,2640.00
2018-07-12T09:27:39.969Z,3608.00
2018-07-12T09:28:39.989Z,2844.00
2018-07-12T09:29:40.061Z,4264.00
2018-07-12T09:30:40.079Z,4484.00
2018-07-12T09:31:40.051Z,3412.00
2018-07-12T09:32:40.048Z,2156.00
2018-07-12T09:33:40.077Z,2164.00
2018-07-12T09:34:40.271Z,2196.00
2018-07-12T09:35:40.104Z,2424.00
2018-07-12T09:36:40.177Z,4680.00
2018-07-12T09:37:40.130Z,4856.00
2018-07-12T09:38:40.151Z,4916.00
2018-07-12T09:39:40.231Z,4876.00
2018-07-12T09:40:40.665Z,4884.00
2018-07-12T09:41:40.969Z,5000.00
2018-07-12T09:42:40.982Z,5124.00
2018-07-12T09:43:40.915Z,5048.00
2018-07-12T09:44:42.193Z,5304.00
2018-07-12T09:45:40.763Z,3428.00
2018-07-12T09:47:40.355Z,3328.00
2018-07-12T09:48:40.322Z,3716.00
2018-07-12T09:49:40.335Z,3888.00
2018-07-12T09:50:40.357Z,3524.00
2018-07-12T09:51:40.437Z,2924.00
2018-07-12T09:52:40.516Z,3084.00
2018-07-12T09:53:40.513Z,3464.00
2018-07-12T09:54:40.553Z,5688.00
2018-07-12T09:55:40.556Z,5592.00
2018-07-12T09:56:41.151Z,5564.00
2018-07-12T09:57:40.492Z,5496.00
2018-07-12T09:58:40.521Z,5384.00
2018-07-12T09:59:40.517Z,3640.00
2018-07-12T10:00:40.540Z,3860.00
2018-07-12T10:01:40.540Z,2876.00
2018-07-12T10:02:40.558Z,3160.00
2018-07-12T10:03:40.603Z,3344.00
2018-07-12T10:04:40.592Z,3528.00
2018-07-12T10:05:40.697Z,4164.00
2018-07-12T10:07:40.714Z,4640.00
2018-07-12T10:08:40.663Z,4144.00
2018-07-12T10:09:40.742Z,5460.00
2018-07-12T10:10:40.873Z,4260.00
2018-07-12T10:11:40.713Z,3232.00
2018-07-12T10:12:40.743Z,3152.00
2018-07-12T10:13:40.914Z,3232.00
2018-07-12T10:14:40.774Z,4780.00
2018-07-12T10:15:41.108Z,5424.00
2018-07-12T10:16:40.816Z,4788.00
2018-07-12T10:17:40.821Z,3188.00
2018-07-12T10:18:40.835Z,2732.00
2018-07-12T10:19:40.852Z,2684.00
2018-07-12T10:20:40.878Z,2652.00
2018-07-12T10:21:40.888Z,2856.00
2018-07-12T10:22:40.902Z,3056.00
2018-07-12T10:23:40.961Z,3136.00
2018-07-12T10:24:40.955Z,3036.00
2018-07-12T10:25:40.954Z,2856.00
2018-07-12T10:26:40.975Z,2644.00
2018-07-12T10:27:40.989Z,2508.00
2018-07-12T10:28:41.354Z,3272.00
2018-07-12T10:29:41.063Z,4028.00
2018-07-12T10:30:41.128Z,4560.00
2018-07-12T10:31:41.074Z,4604.00
2018-07-12T10:32:41.092Z,4832.00
2018-07-12T10:33:41.097Z,4892.00
2018-07-12T10:34:41.112Z,4816.00
2018-07-12T10:35:41.133Z,4772.00
2018-07-12T10:36:41.270Z,2640.00
2018-07-12T10:37:41.164Z,2604.00
2018-07-12T10:38:41.187Z,2856.00
2018-07-12T10:39:41.199Z,4916.00
2018-07-12T10:40:41.216Z,4932.00
2018-07-12T10:41:41.235Z,4992.00
2018-07-12T10:42:41.255Z,5152.00
2018-07-12T10:43:41.271Z,5376.00
2018-07-12T10:44:41.303Z,5068.00
2018-07-12T10:46:41.421Z,3412.00
2018-07-12T10:47:41.347Z,3216.00
2018-07-12T10:48:41.356Z,3048.00
2018-07-12T10:49:41.379Z,3124.00
2018-07-12T10:50:41.496Z,3140.00
2018-07-12T10:51:41.417Z,5116.00
2018-07-12T10:52:41.429Z,5180.00
2018-07-12T10:53:41.444Z,5112.00
2018-07-12T10:54:41.465Z,3268.00
2018-07-12T10:55:41.478Z,4744.00
2018-07-12T10:56:41.494Z,5020.00
2018-07-12T10:57:41.517Z,3904.00
2018-07-12T10:58:41.580Z,2948.00
2018-07-12T10:59:41.824Z,2972.00
2018-07-12T11:00:41.584Z,3176.00
2018-07-12T11:01:41.583Z,3584.00
2018-07-12T11:02:41.599Z,5816.00
2018-07-12T11:03:41.672Z,6020.00
2018-07-12T11:04:41.843Z,5404.00
2018-07-12T11:05:41.731Z,4356.00
2018-07-12T11:06:41.869Z,4440.00
2018-07-12T11:07:41.686Z,5756.00
2018-07-12T11:08:41.704Z,5956.00
2018-07-12T11:09:41.730Z,3332.00
2018-07-12T11:10:41.775Z,3040.00
2018-07-12T11:11:41.754Z,3144.00
2018-07-12T11:12:41.777Z,3684.00
2018-07-12T11:13:41.791Z,5564.00
2018-07-12T11:14:41.831Z,5832.00
2018-07-12T11:15:41.830Z,6216.00
2018-07-12T11:16:41.849Z,6768.00
2018-07-12T11:18:42.021Z,4304.00
2018-07-12T11:20:41.916Z,4408.00
2018-07-12T11:21:42.784Z,4612.00
2018-07-12T11:22:42.279Z,5644.00
2018-07-12T11:23:41.973Z,5240.00
2018-07-12T11:24:42.901Z,5872.00
2018-07-12T11:26:42.020Z,4036.00
2018-07-12T11:27:42.037Z,3804.00
2018-07-12T11:28:42.190Z,3700.00
2018-07-12T11:29:42.089Z,3752.00
2018-07-12T11:30:42.239Z,4008.00
2018-07-12T11:31:42.113Z,4360.00
2018-07-12T11:32:42.129Z,4888.00
2018-07-12T11:33:42.155Z,4860.00
2018-07-12T11:34:42.164Z,4992.00
2018-07-12T11:35:42.260Z,5488.00
2018-07-12T11:36:42.203Z,4884.00
2018-07-12T11:37:42.229Z,4880.00
2018-07-12T11:38:42.237Z,3376.00
2018-07-12T11:39:42.344Z,3184.00
2018-07-12T11:40:42.283Z,3356.00
2018-07-12T11:41:42.314Z,4436.00
2018-07-12T11:42:42.308Z,5928.00
2018-07-12T11:43:42.329Z,6368.00
2018-07-12T11:44:42.379Z,6412.00
2018-07-12T11:45:42.371Z,6676.00
2018-07-12T11:46:42.387Z,5840.00
2018-07-12T11:47:42.401Z,6304.00
2018-07-12T11:48:42.472Z,6764.00
2018-07-12T11:49:42.441Z,6696.00
2018-07-12T11:50:42.458Z,6564.00
2018-07-12T11:52:43.379Z,6444.00
2018-07-12T11:53:42.820Z,6468.00
2018-07-12T11:54:43.000Z,6272.00
2018-07-12T11:55:42.555Z,6548.00
2018-07-12T11:56:42.576Z,5256.00
2018-07-12T11:57:42.588Z,6648.00
2018-07-12T11:58:42.605Z,6208.00
2018-07-12T11:59:42.631Z,4660.00
2018-07-12T12:00:42.642Z,4288.00
2018-07-12T12:01:42.768Z,4292.00
2018-07-12T12:02:42.681Z,4340.00
2018-07-12T12:03:42.731Z,4636.00
2018-07-12T12:04:42.719Z,6764.00
2018-07-12T12:05:42.738Z,7140.00
2018-07-12T12:06:42.756Z,7124.00
2018-07-12T12:07:42.956Z,7128.00
2018-07-12T12:08:42.795Z,6044.00
2018-07-12T12:09:43.892Z,5296.00
2018-07-12T12:10:42.966Z,5088.00
2018-07-12T12:11:42.875Z,4556.00
2018-07-12T12:12:43.355Z,4264.00
2018-07-12T12:13:42.890Z,4072.00
2018-07-12T12:14:42.912Z,3940.00
2018-07-12T12:15:42.948Z,3988.00
2018-07-12T12:16:42.962Z,3896.00
2018-07-12T12:17:43.021Z,3904.00
2018-07-12T12:18:43.220Z,3852.00
2018-07-12T12:19:43.334Z,3836.00
2018-07-12T12:20:43.042Z,4176.00
2018-07-12T12:21:43.047Z,4984.00
2018-07-12T12:22:43.065Z,6652.00
2018-07-12T12:23:43.088Z,4440.00
2018-07-12T12:24:43.204Z,4400.00
2018-07-12T12:25:43.114Z,4604.00
2018-07-12T12:26:43.139Z,5176.00
2018-07-12T12:27:43.184Z,7552.00
2018-07-12T12:28:43.170Z,7768.00
2018-07-12T12:29:43.197Z,8008.00
2018-07-12T12:30:43.207Z,8120.00
2018-07-12T12:31:43.232Z,7504.00
2018-07-12T12:32:43.251Z,4636.00
2018-07-12T12:33:43.270Z,4164.00
2018-07-12T12:34:43.284Z,3780.00
2018-07-12T12:35:43.310Z,3580.00
2018-07-12T12:36:43.881Z,3496.00
2018-07-12T12:37:43.703Z,3324.00
2018-07-12T12:38:43.428Z,3172.00
2018-07-12T12:39:43.381Z,3056.00
2018-07-12T12:40:43.411Z,2976.00
2018-07-12T12:41:43.437Z,2848.00
2018-07-12T12:42:43.443Z,2800.00
2018-07-12T12:43:43.456Z,2808.00
2018-07-12T12:44:43.476Z,2836.00